Terminal Aerodrome Forecast
Issued by NWS

Current Version | Previous Version | Text Only | Print | Product List | Glossary On
Versions: 1 2 3 4 5 6 7 8 9 10 11 12 13 14 15
000
FTUS43 KGRR 292000 AAB
TAFJXN
TAF AMD
KJXN 292020Z 2920/3018 20018G30KT P6SM -RA SCT035 OVC060
     FM292100 18021G32KT 3SM -RA BR OVC020
      TEMPO 2921/2922 1 1/2SM -RASN BR
     FM292200 19021G32KT 3SM -DZ BR OVC015
     FM300000 21022G32KT 4SM -SHRA OVC015
     FM300600 26014G22KT P6SM SCT015 BKN035
     FM300800 28012G22KT P6SM FEW035=

USA.gov is the U.S. government's official web portal to all federal, state and local government web resources and services.